Time;durP1;ratioP1;P1;durP2;ratioP2;P2;SDS_P1;SDS_P2;PMS_P1;PMS_P2;Temp;Humidity;BMP_temperature;BMP_pressure;BME280_temperature;BME280_humidity;BME280_pressure;Samples;Min_cycle;Max_cycle;Signal;HPM_P1;HPM_P2
2021/10/28 00:14:08;;;;;;;583.42;522.25;;;11.90;99.90;;;;;;5085653;28;20214;-76
2021/10/28 00:16:36;;;;;;;581.83;521.25;;;11.90;99.90;;;;;;5093302;28;20895;-77
2021/10/28 00:19:05;;;;;;;596.88;535.95;;;11.90;99.90;;;;;;5090647;28;20201;-76
2021/10/28 00:21:36;;;;;;;544.50;485.20;;;11.90;99.90;;;;;;5088430;28;20713;-77
2021/10/28 00:24:06;;;;;;;616.13;554.83;;;11.90;99.90;;;;;;5094217;28;20211;-77
2021/10/28 00:26:35;;;;;;;602.95;541.38;;;11.90;99.90;;;;;;5091339;28;20237;-77
2021/10/28 00:29:04;;;;;;;603.58;542.20;;;11.90;99.90;;;;;;5091492;28;20226;-77
2021/10/28 00:31:34;;;;;;;598.47;537.42;;;11.90;99.90;;;;;;5096994;28;20212;-77
2021/10/28 00:34:02;;;;;;;618.13;556.85;;;11.90;99.90;;;;;;5090385;28;20209;-77
2021/10/28 00:36:30;;;;;;;595.75;535.67;;;11.80;99.90;;;;;;5091094;28;20793;-77
2021/10/28 00:38:58;;;;;;;538.38;477.42;;;11.80;99.90;;;;;;5098381;28;20204;-77
2021/10/28 00:41:26;;;;;;;617.30;555.67;;;11.80;99.90;;;;;;5086163;28;20717;-77
2021/10/28 00:43:56;;;;;;;619.83;558.53;;;11.80;99.90;;;;;;5089567;28;20697;-77
2021/10/28 00:46:26;;;;;;;595.20;534.70;;;11.80;99.90;;;;;;5086457;28;20285;-77
2021/10/28 00:48:54;;;;;;;577.10;516.28;;;11.80;99.90;;;;;;5086624;28;20260;-77
2021/10/28 00:51:23;;;;;;;542.05;481.38;;;11.70;99.90;;;;;;5086743;28;20606;-77
2021/10/28 00:53:53;;;;;;;587.15;525.78;;;11.80;99.90;;;;;;5087443;28;20208;-77
2021/10/28 00:56:23;;;;;;;608.65;547.17;;;11.80;99.90;;;;;;5086491;28;20209;-77
2021/10/28 00:58:50;;;;;;;615.70;554.47;;;11.70;99.90;;;;;;5096000;28;20245;-77
2021/10/28 01:01:18;;;;;;;607.65;545.95;;;11.70;99.90;;;;;;5085970;28;20211;-77
2021/10/28 01:03:45;;;;;;;569.90;509.58;;;11.60;99.90;;;;;;5092248;28;20232;-77
2021/10/28 01:06:13;;;;;;;584.47;523.22;;;11.70;99.90;;;;;;5092006;28;20228;-77
2021/10/28 01:08:43;;;;;;;572.65;512.45;;;11.60;99.90;;;;;;5092980;28;20205;-77
2021/10/28 01:11:13;;;;;;;614.45;551.78;;;11.60;99.90;;;;;;5090969;28;21081;-77
2021/10/28 01:13:40;;;;;;;557.65;497.63;;;11.60;99.90;;;;;;5097777;28;20235;-77
2021/10/28 01:16:08;;;;;;;597.35;535.88;;;11.70;99.90;;;;;;5095225;28;20201;-78
2021/10/28 01:18:38;;;;;;;527.28;464.23;;;11.70;99.90;;;;;;5086484;28;20200;-77
2021/10/28 01:21:09;;;;;;;570.67;510.20;;;11.60;99.90;;;;;;5091958;28;20201;-77
2021/10/28 01:23:40;;;;;;;578.53;518.05;;;11.60;99.90;;;;;;5089590;28;20231;-77
2021/10/28 01:26:09;;;;;;;596.10;534.95;;;11.60;99.90;;;;;;5086854;28;20254;-77
2021/10/28 01:28:39;;;;;;;531.80;455.08;;;11.50;99.90;;;;;;5086060;28;20197;-77
2021/10/28 01:31:08;;;;;;;560.42;500.45;;;11.50;99.90;;;;;;5086651;28;20208;-77
2021/10/28 01:33:38;;;;;;;557.35;496.77;;;11.50;99.90;;;;;;5095406;28;20245;-77
2021/10/28 01:36:07;;;;;;;585.03;524.72;;;11.40;99.90;;;;;;5088797;28;20208;-77
2021/10/28 01:38:37;;;;;;;543.55;483.45;;;11.40;99.90;;;;;;5097421;28;20249;-77
2021/10/28 01:41:06;;;;;;;533.72;455.20;;;11.40;99.90;;;;;;5097517;28;20205;-77
2021/10/28 01:43:34;;;;;;;543.45;478.33;;;11.40;99.90;;;;;;5096298;28;20200;-77
2021/10/28 01:46:03;;;;;;;555.42;495.08;;;11.40;99.90;;;;;;5080935;28;20247;-77
2021/10/28 01:48:31;;;;;;;533.10;439.88;;;11.40;99.90;;;;;;5095264;28;20199;-77
2021/10/28 01:50:59;;;;;;;547.67;487.65;;;11.50;99.90;;;;;;5091879;28;20211;-77
2021/10/28 01:53:27;;;;;;;531.22;456.85;;;11.50;99.90;;;;;;5092825;28;20200;-77
2021/10/28 01:55:54;;;;;;;560.28;500.13;;;11.50;99.90;;;;;;5089975;28;20196;-77
2021/10/28 01:58:23;;;;;;;556.22;491.02;;;11.50;99.90;;;;;;5087134;28;20228;-77
2021/10/28 02:00:52;;;;;;;590.92;529.90;;;11.40;99.90;;;;;;5087510;28;20222;-77
2021/10/28 02:03:19;;;;;;;529.38;446.20;;;11.50;99.90;;;;;;5090482;28;20242;-77
2021/10/28 02:05:47;;;;;;;530.10;447.67;;;11.60;99.90;;;;;;5090805;28;20204;-77
2021/10/28 02:08:15;;;;;;;564.17;503.10;;;11.50;99.90;;;;;;5089455;28;20224;-77
2021/10/28 02:10:44;;;;;;;567.38;507.20;;;11.50;99.90;;;;;;5085223;28;20335;-77
2021/10/28 02:13:12;;;;;;;580.22;519.00;;;11.60;99.90;;;;;;5085882;28;20205;-77
2021/10/28 02:15:40;;;;;;;540.63;480.70;;;11.60;99.90;;;;;;5085594;28;20565;-76
2021/10/28 02:18:08;;;;;;;577.05;515.80;;;11.60;99.90;;;;;;5085997;28;20209;-77
2021/10/28 02:20:35;;;;;;;577.35;516.53;;;11.60;99.90;;;;;;5092030;28;20197;-78
2021/10/28 02:23:03;;;;;;;582.72;521.97;;;11.60;99.90;;;;;;5089825;28;20211;-76
2021/10/28 02:25:30;;;;;;;561.67;500.45;;;11.60;99.90;;;;;;5086142;28;20266;-77
2021/10/28 02:27:58;;;;;;;562.40;500.70;;;11.60;99.90;;;;;;5088250;28;20227;-77
2021/10/28 02:30:26;;;;;;;563.28;502.42;;;11.60;99.90;;;;;;5088386;28;20219;-77
2021/10/28 02:32:53;;;;;;;592.78;531.80;;;11.60;99.90;;;;;;5091363;28;20204;-77
2021/10/28 02:35:20;;;;;;;562.80;502.08;;;11.60;99.90;;;;;;5087262;28;20540;-77
2021/10/28 02:37:47;;;;;;;534.90;468.67;;;11.60;99.90;;;;;;5085227;28;20237;-77
2021/10/28 02:40:15;;;;;;;539.55;479.20;;;11.50;99.90;;;;;;5090225;28;20262;-77
2021/10/28 02:42:42;;;;;;;536.92;471.27;;;11.60;99.90;;;;;;5093166;28;20212;-77
2021/10/28 02:45:12;;;;;;;530.83;459.63;;;11.60;99.90;;;;;;5089306;28;20227;-77
2021/10/28 02:47:39;;;;;;;567.00;505.63;;;11.60;99.90;;;;;;5089003;28;20229;-77
2021/10/28 02:50:07;;;;;;;560.88;500.98;;;11.60;99.90;;;;;;5094748;28;20211;-77
2021/10/28 02:52:35;;;;;;;528.83;447.90;;;11.60;99.90;;;;;;5093246;28;20264;-77
2021/10/28 02:55:02;;;;;;;571.92;511.65;;;11.60;99.90;;;;;;5093654;28;20203;-77
2021/10/28 02:57:29;;;;;;;562.80;502.70;;;11.60;99.90;;;;;;5091976;28;20207;-77
2021/10/28 02:59:56;;;;;;;557.30;496.38;;;11.50;99.90;;;;;;5102784;28;20208;-77
2021/10/28 03:02:25;;;;;;;575.45;514.67;;;11.60;99.90;;;;;;5095035;28;20552;-77
2021/10/28 03:04:52;;;;;;;565.25;504.83;;;11.60;99.90;;;;;;5095773;28;20233;-77
2021/10/28 03:07:19;;;;;;;579.55;518.50;;;11.50;99.90;;;;;;5094496;28;20242;-77
2021/10/28 03:12:29;;;;;;;569.42;508.88;;;11.40;99.90;;;;;;5093945;28;20242;-77
2021/10/28 03:14:58;;;;;;;540.70;465.05;;;11.40;99.90;;;;;;5088560;28;20201;-77
2021/10/28 03:17:35;;;;;;;557.70;497.17;;;11.40;99.90;;;;;;5094485;28;20201;-77
2021/10/28 03:25:39;;;;;;;554.55;494.48;;;11.30;99.90;;;;;;5095534;28;20211;-78
2021/10/28 03:28:13;;;;;;;558.72;498.27;;;11.30;99.90;;;;;;5091638;28;20220;-78
2021/10/28 03:30:40;;;;;;;537.58;461.63;;;11.20;99.90;;;;;;5100267;28;20204;-78
2021/10/28 03:35:54;;;;;;;526.13;424.45;;;11.10;99.90;;;;;;5089236;28;20260;-78
2021/10/28 03:38:24;;;;;;;538.03;464.75;;;11.20;99.90;;;;;;5094781;28;20212;-78
2021/10/28 04:05:59;;;;;;;541.15;453.20;;;10.70;99.90;;;;;;5029634;28;20198;-77
2021/10/28 04:08:45;;;;;;;542.40;456.30;;;10.70;99.90;;;;;;5024554;28;20237;-78
2021/10/28 04:19:31;;;;;;;525.03;381.40;;;10.70;99.90;;;;;;5029120;28;20279;-77
2021/10/28 04:30:18;;;;;;;535.42;411.02;;;10.70;99.90;;;;;;5049144;28;20223;-77
2021/10/28 04:32:45;;;;;;;545.70;465.92;;;10.60;99.90;;;;;;5052095;28;20228;-77
2021/10/28 04:35:12;;;;;;;539.15;448.58;;;10.70;99.90;;;;;;5056123;28;20224;-77
2021/10/28 04:37:41;;;;;;;547.05;480.50;;;10.60;99.90;;;;;;5046894;28;20210;-77
2021/10/28 04:40:08;;;;;;;545.55;465.35;;;10.70;99.90;;;;;;5046484;28;20227;-77
2021/10/28 04:42:36;;;;;;;536.95;458.58;;;10.70;99.90;;;;;;5047620;28;20199;-77
2021/10/28 04:45:04;;;;;;;545.15;464.50;;;10.70;99.90;;;;;;5056341;28;20229;-77
2021/10/28 04:47:32;;;;;;;540.55;437.83;;;10.70;99.90;;;;;;5046699;28;20226;-77
2021/10/28 04:50:07;;;;;;;545.60;457.95;;;10.70;99.90;;;;;;5049519;28;20260;-77
2021/10/28 04:52:42;;;;;;;544.08;448.88;;;10.80;99.90;;;;;;5051723;28;20197;-77
2021/10/28 04:55:10;;;;;;;535.08;445.85;;;10.80;99.90;;;;;;5047190;28;20201;-77
2021/10/28 04:57:37;;;;;;;545.20;463.80;;;10.80;99.90;;;;;;5048577;28;20255;-78
2021/10/28 05:00:09;;;;;;;539.88;447.00;;;10.80;99.90;;;;;;5049375;28;20289;-77
2021/10/28 05:02:36;;;;;;;544.08;460.65;;;10.80;99.90;;;;;;5051666;28;20240;-78
2021/10/28 05:05:12;;;;;;;546.65;468.90;;;10.80;99.90;;;;;;5102720;28;20210;-77
2021/10/28 05:07:39;;;;;;;549.92;478.35;;;10.80;99.90;;;;;;5095552;28;20227;-77
2021/10/28 05:10:06;;;;;;;528.15;393.48;;;10.70;99.90;;;;;;5100445;28;20203;-77
2021/10/28 05:12:38;;;;;;;547.92;476.35;;;10.70;99.90;;;;;;5104909;28;20223;-77
2021/10/28 05:15:06;;;;;;;554.78;474.67;;;10.70;99.90;;;;;;5095853;28;20197;-77
2021/10/28 05:17:33;;;;;;;540.65;462.98;;;10.70;99.90;;;;;;5095776;28;20227;-78
2021/10/28 05:20:00;;;;;;;558.38;490.83;;;10.70;99.90;;;;;;5097611;28;20205;-77
2021/10/28 05:22:27;;;;;;;546.35;475.48;;;10.80;99.90;;;;;;5092698;28;20205;-78
2021/10/28 05:24:54;;;;;;;547.83;447.52;;;10.80;99.90;;;;;;5093925;28;20211;-77
2021/10/28 05:27:21;;;;;;;535.97;416.17;;;10.80;99.90;;;;;;5087734;28;20225;-78
2021/10/28 05:29:50;;;;;;;539.85;450.30;;;10.80;99.90;;;;;;5091913;28;20210;-78
2021/10/28 05:32:16;;;;;;;542.90;468.67;;;10.80;99.90;;;;;;5092011;28;20205;-78
2021/10/28 05:34:44;;;;;;;548.78;469.48;;;10.90;99.90;;;;;;5098150;28;20218;-78
2021/10/28 05:37:11;;;;;;;523.88;407.40;;;10.90;99.90;;;;;;5092598;28;20260;-78
2021/10/28 05:39:38;;;;;;;550.97;475.40;;;10.80;99.90;;;;;;5087950;28;20231;-77
2021/10/28 05:42:06;;;;;;;561.60;500.17;;;10.80;99.90;;;;;;5091050;28;20223;-78
2021/10/28 05:44:33;;;;;;;548.60;467.08;;;10.90;99.90;;;;;;5070561;28;20253;-77
2021/10/28 05:47:01;;;;;;;546.30;457.70;;;10.80;99.90;;;;;;5087408;28;20725;-78
2021/10/28 05:49:31;;;;;;;540.13;441.00;;;10.80;99.90;;;;;;5088280;28;20229;-78
2021/10/28 05:51:58;;;;;;;548.20;463.02;;;10.80;99.90;;;;;;5093481;28;20206;-78
2021/10/28 05:54:25;;;;;;;543.90;458.05;;;10.80;99.90;;;;;;5092089;28;20257;-77
2021/10/28 05:56:52;;;;;;;551.38;472.88;;;10.80;99.90;;;;;;5093918;28;20204;-77
2021/10/28 05:59:19;;;;;;;553.70;485.67;;;10.80;99.90;;;;;;5087821;28;20230;-78
2021/10/28 06:01:46;;;;;;;538.88;434.67;;;10.70;99.90;;;;;;5089838;28;20206;-77
2021/10/28 06:04:15;;;;;;;548.95;451.30;;;10.70;99.90;;;;;;5087843;28;20228;-77
2021/10/28 06:06:42;;;;;;;551.00;465.88;;;10.70;99.90;;;;;;5085160;28;20211;-76
2021/10/28 06:09:09;;;;;;;543.50;455.65;;;10.70;99.90;;;;;;5090684;28;20241;-77
2021/10/28 06:11:36;;;;;;;550.55;464.92;;;10.80;99.90;;;;;;5096659;28;20212;-77
2021/10/28 06:14:03;;;;;;;551.33;460.33;;;10.80;99.90;;;;;;5089421;28;20224;-77
2021/10/28 06:16:33;;;;;;;552.83;475.90;;;10.80;99.90;;;;;;5088398;28;20207;-77
2021/10/28 06:18:59;;;;;;;545.80;440.23;;;10.80;99.90;;;;;;5085421;28;20224;-77
2021/10/28 06:21:28;;;;;;;652.58;589.05;;;10.70;99.90;;;;;;5090903;28;20470;-76
2021/10/28 06:23:55;;;;;;;593.53;531.15;;;10.70;99.90;;;;;;5092378;28;20230;-76
2021/10/28 06:26:22;;;;;;;530.40;424.08;;;10.70;99.90;;;;;;5098373;28;20197;-76
2021/10/28 06:28:49;;;;;;;546.03;458.70;;;10.70;99.90;;;;;;5095452;28;20334;-76
2021/10/28 06:31:16;;;;;;;530.85;410.65;;;10.80;99.90;;;;;;5089722;28;20204;-76
2021/10/28 06:33:50;;;;;;;548.45;457.40;;;10.80;99.90;;;;;;5091035;28;20209;-76
2021/10/28 06:36:20;;;;;;;551.92;468.23;;;10.80;99.90;;;;;;5089579;28;20215;-76
2021/10/28 06:38:48;;;;;;;525.28;413.15;;;10.80;99.90;;;;;;5089928;28;20211;-76
2021/10/28 06:41:15;;;;;;;557.15;483.73;;;10.80;99.90;;;;;;5092438;28;20205;-77
2021/10/28 06:43:42;;;;;;;546.95;471.40;;;10.90;99.90;;;;;;5098975;28;20203;-76
2021/10/28 06:46:09;;;;;;;525.83;404.75;;;10.90;99.90;;;;;;5096364;28;20230;-76
2021/10/28 06:48:36;;;;;;;555.17;457.15;;;10.90;99.90;;;;;;5090650;28;20247;-76
2021/10/28 06:51:04;;;;;;;543.63;464.13;;;10.90;99.90;;;;;;5088150;28;20932;-76
2021/10/28 06:53:34;;;;;;;555.33;488.13;;;10.90;99.90;;;;;;5093393;28;20207;-76
2021/10/28 06:56:15;;;;;;;532.13;406.80;;;10.90;99.90;;;;;;5088091;28;20572;-76
2021/10/28 07:04:10;;;;;;;556.65;471.35;;;10.90;99.90;;;;;;5090251;28;20231;-76
2021/10/28 07:06:39;;;;;;;561.47;496.15;;;10.90;99.90;;;;;;5088852;28;20265;-76
2021/10/28 07:09:17;;;;;;;549.58;462.95;;;10.80;99.90;;;;;;5088663;28;20231;-76
2021/10/28 07:11:50;;;;;;;555.70;482.02;;;10.80;99.90;;;;;;5095292;28;20203;-76
2021/10/28 07:14:17;;;;;;;537.22;429.80;;;10.80;99.90;;;;;;5089850;28;20207;-76
2021/10/28 07:16:48;;;;;;;564.05;500.40;;;10.80;99.90;;;;;;5095460;28;20712;-76
2021/10/28 07:19:39;;;;;;;551.97;474.63;;;10.80;99.90;;;;;;5088561;28;20201;-76
2021/10/28 07:22:20;;;;;;;559.53;482.35;;;10.90;99.90;;;;;;5092794;28;20302;-76
2021/10/28 07:27:53;;;;;;;537.28;425.58;;;10.90;99.90;;;;;;5082173;28;20202;-76
2021/10/28 07:33:25;;;;;;;543.38;445.23;;;11.00;99.90;;;;;;5090169;28;20204;-76
2021/10/28 07:57:57;;;;;;;574.80;512.42;;;11.60;99.90;;;;;;5091147;28;20270;-78
2021/10/28 08:06:10;;;;;;;565.53;503.85;;;11.60;99.90;;;;;;5103229;28;20223;-76
2021/10/28 08:19:47;;;;;;;539.88;462.48;;;11.80;99.90;;;;;;5075801;28;20208;-75
2021/10/28 08:22:19;;;;;;;604.50;542.03;;;11.90;99.90;;;;;;5102123;28;20207;-75
2021/10/28 08:30:19;;;;;;;551.97;490.20;;;12.10;99.90;;;;;;5100342;28;20238;-74
2021/10/28 08:32:48;;;;;;;644.17;580.13;;;12.20;99.90;;;;;;5102023;28;20241;-75
2021/10/28 08:35:15;;;;;;;657.97;594.30;;;12.50;99.90;;;;;;5100941;28;20204;-74
2021/10/28 08:37:45;;;;;;;617.38;554.65;;;12.80;99.90;;;;;;5102568;28;20271;-74
2021/10/28 08:40:14;;;;;;;640.13;577.45;;;13.10;99.90;;;;;;5100406;28;20205;-76
2021/10/28 08:42:42;;;;;;;639.70;576.50;;;13.50;99.90;;;;;;5102074;28;20196;-76
2021/10/28 08:45:13;;;;;;;656.92;593.53;;;13.60;99.90;;;;;;5101616;28;20245;-76
2021/10/28 08:47:46;;;;;;;734.78;669.42;;;13.80;99.90;;;;;;5099700;28;20218;-76
2021/10/28 08:50:21;;;;;;;685.58;621.30;;;14.20;99.90;;;;;;5100724;28;20196;-76
2021/10/28 08:55:50;;;;;;;799.88;733.17;;;14.90;99.90;;;;;;5038238;28;20199;-76
2021/10/28 08:58:37;;;;;;;812.03;744.58;;;15.30;99.90;;;;;;5037094;28;20204;-76
2021/10/28 09:26:28;;;;;;;881.58;814.15;;;17.90;99.90;;;;;;5058524;28;20269;-76
2021/10/28 09:29:03;;;;;;;893.92;826.03;;;18.00;99.90;;;;;;5101525;28;20237;-76
2021/10/28 09:31:33;;;;;;;933.75;864.13;;;18.10;99.90;;;;;;5097105;28;20208;-76
2021/10/28 09:34:10;;;;;;;943.45;873.78;;;18.10;99.90;;;;;;5100205;28;20243;-76
2021/10/28 09:45:33;;;;;;;949.50;880.22;;;18.40;99.90;;;;;;5100094;28;20286;-75
2021/10/28 09:48:08;;;;;;;951.47;881.92;;;18.40;99.90;;;;;;5100257;28;20213;-76
2021/10/28 09:50:49;;;;;;;944.85;875.97;;;18.30;99.90;;;;;;5100252;28;20208;-76
2021/10/28 09:53:25;;;;;;;953.78;884.33;;;18.30;99.90;;;;;;5097355;28;20201;-76
2021/10/28 09:58:37;;;;;;;947.50;878.45;;;18.20;99.90;;;;;;5100124;28;20273;-76
2021/10/28 10:01:07;;;;;;;936.13;866.90;;;18.10;99.90;;;;;;5098651;28;20254;-76
2021/10/28 10:08:07;;;;;;;917.63;851.85;;;17.80;99.90;;;;;;5097935;28;20550;-76
2021/10/28 10:10:35;;;;;;;914.58;849.25;;;17.70;99.90;;;;;;5099306;28;20323;-76
2021/10/28 10:13:03;;;;;;;885.08;820.38;;;17.80;99.90;;;;;;5098238;28;20232;-76
2021/10/28 10:15:30;;;;;;;891.35;825.58;;;17.80;99.90;;;;;;5099657;28;20270;-76
2021/10/28 10:18:00;;;;;;;929.00;861.85;;;17.90;99.90;;;;;;5099830;28;20233;-75
2021/10/28 10:20:33;;;;;;;921.13;854.22;;;18.00;99.90;;;;;;5097789;28;20210;-76
2021/10/28 10:23:24;;;;;;;907.95;840.97;;;18.00;99.90;;;;;;5098724;28;20218;-76
2021/10/28 10:26:12;;;;;;;924.30;856.60;;;18.00;99.90;;;;;;5099928;28;20216;-76
2021/10/28 11:22:59;;;;;;;851.78;786.78;;;17.30;99.90;;;;;;5078258;28;20217;-76
2021/10/28 11:25:52;;;;;;;884.22;817.67;;;17.20;99.90;;;;;;5078882;28;20213;-76
2021/10/28 11:28:57;;;;;;;883.90;817.95;;;17.10;99.90;;;;;;5079467;28;20202;-76
2021/10/28 13:35:07;;;;;;;900.97;834.47;;;17.50;99.90;;;;;;5056928;28;21587;-76
2021/10/28 13:50:55;;;;;;;880.17;813.50;;;17.30;99.90;;;;;;5022864;28;21069;-76
2021/10/28 13:56:16;;;;;;;889.08;823.22;;;17.40;99.90;;;;;;5023555;28;20256;-76
2021/10/28 15:28:33;;;;;;;817.33;753.08;;;16.50;99.90;;;;;;5126440;28;20228;-83
2021/10/28 15:37:30;;;;;;;841.45;775.90;;;16.30;99.90;;;;;;5124063;27;20555;-82
2021/10/28 15:40:06;;;;;;;853.75;787.13;;;16.30;99.90;;;;;;5123690;28;20201;-83
2021/10/28 15:43:06;;;;;;;838.58;773.42;;;16.30;99.90;;;;;;5123748;28;20256;-83
2021/10/28 15:54:38;;;;;;;792.30;728.63;;;16.10;99.90;;;;;;5078867;28;20304;-84
2021/10/28 15:57:20;;;;;;;844.42;779.22;;;16.20;99.90;;;;;;5079369;28;20242;-83
2021/10/28 16:00:04;;;;;;;851.00;784.33;;;16.10;99.90;;;;;;5079752;28;20191;-85
2021/10/28 16:21:54;;;;;;;771.28;706.55;;;15.30;99.90;;;;;;5040996;28;20218;-80
2021/10/28 16:24:26;;;;;;;799.75;735.05;;;15.30;99.90;;;;;;5041456;28;20228;-83
2021/10/28 16:27:10;;;;;;;811.47;745.53;;;15.30;99.90;;;;;;5039799;28;20216;-82
2021/10/28 16:29:37;;;;;;;800.55;735.63;;;15.20;99.90;;;;;;5057530;28;20231;-82
2021/10/28 16:43:06;;;;;;;815.33;750.42;;;15.10;99.90;;;;;;5112326;28;20243;-78
2021/10/28 16:45:34;;;;;;;793.70;728.92;;;15.10;99.90;;;;;;5121615;28;20277;-83
2021/10/28 16:50:54;;;;;;;778.38;713.67;;;15.00;99.90;;;;;;5108984;28;20204;-82
2021/10/28 16:56:10;;;;;;;781.83;716.90;;;14.70;99.90;;;;;;5108852;28;20238;-82
2021/10/28 16:58:53;;;;;;;759.20;695.42;;;14.70;99.90;;;;;;5109273;28;20200;-81
2021/10/28 17:04:03;;;;;;;737.83;673.83;;;14.50;99.90;;;;;;5109188;28;20209;-81
2021/10/28 17:06:30;;;;;;;720.85;657.20;;;14.40;99.90;;;;;;5108099;28;20216;-81
2021/10/28 17:08:59;;;;;;;718.58;655.22;;;14.40;99.90;;;;;;5108144;28;20212;-80
2021/10/28 17:14:23;;;;;;;775.40;710.35;;;14.30;99.90;;;;;;5107429;28;20233;-79
2021/10/28 17:16:54;;;;;;;744.55;680.65;;;14.30;99.90;;;;;;5108643;28;20257;-79
2021/10/28 17:30:11;;;;;;;744.47;679.80;;;13.90;99.90;;;;;;5106127;28;20202;-82
2021/10/28 17:40:49;;;;;;;737.38;672.70;;;13.70;99.90;;;;;;5106561;28;20200;-81
2021/10/28 17:46:13;;;;;;;648.40;585.88;;;13.50;99.90;;;;;;5107466;28;20225;-80
2021/10/28 17:48:40;;;;;;;695.67;631.72;;;13.40;99.90;;;;;;5106003;28;20208;-82
2021/10/28 17:51:08;;;;;;;695.55;631.47;;;13.40;99.90;;;;;;5106151;28;20235;-82
2021/10/28 17:53:37;;;;;;;632.85;571.35;;;13.40;99.90;;;;;;5107894;28;20234;-82
2021/10/28 17:56:07;;;;;;;654.47;592.00;;;13.40;99.90;;;;;;5107881;28;20227;-83
2021/10/28 17:58:42;;;;;;;653.03;590.20;;;13.30;99.90;;;;;;5106623;28;20220;-80
2021/10/28 18:06:35;;;;;;;701.10;637.30;;;13.10;99.90;;;;;;5109742;28;20205;-78
2021/10/28 18:09:23;;;;;;;686.80;622.58;;;13.00;99.90;;;;;;5110153;28;20216;-83
2021/10/28 18:11:52;;;;;;;625.40;563.63;;;12.90;99.90;;;;;;5093162;28;20249;-83
2021/10/28 18:14:23;;;;;;;610.28;548.78;;;13.00;99.90;;;;;;5098764;28;20187;-83
2021/10/28 18:22:17;;;;;;;677.92;614.45;;;12.90;99.90;;;;;;5105730;28;20214;-82
2021/10/28 18:35:45;;;;;;;666.80;602.83;;;12.70;99.90;;;;;;5101510;28;20247;-82
2021/10/28 18:38:12;;;;;;;647.97;584.30;;;12.60;99.90;;;;;;5092340;28;20234;-83
2021/10/28 18:48:42;;;;;;;635.50;572.10;;;12.70;99.90;;;;;;5098568;28;20191;-82
2021/10/28 18:51:25;;;;;;;590.78;529.30;;;12.60;99.90;;;;;;5098870;28;20272;-82
2021/10/28 18:53:53;;;;;;;634.25;570.85;;;12.50;99.90;;;;;;5095472;28;20252;-83
2021/10/28 19:04:31;;;;;;;654.55;591.05;;;12.50;99.90;;;;;;5097370;28;20619;-82
2021/10/28 19:15:05;;;;;;;575.78;514.67;;;12.50;99.90;;;;;;5109299;28;20273;-82
2021/10/28 19:17:32;;;;;;;644.45;580.88;;;12.40;99.90;;;;;;5098550;28;20210;-82
2021/10/28 19:20:00;;;;;;;569.30;508.63;;;12.40;99.90;;;;;;5110781;28;20204;-83
2021/10/28 19:22:43;;;;;;;590.28;528.97;;;12.30;99.90;;;;;;5102592;28;20224;-82
2021/10/28 19:27:53;;;;;;;554.47;494.05;;;12.30;99.90;;;;;;5090138;28;20205;-83
2021/10/28 19:39:10;;;;;;;612.75;550.42;;;12.20;99.90;;;;;;5097175;28;20192;-83
2021/10/28 19:50:01;;;;;;;598.55;536.88;;;12.30;99.90;;;;;;5090834;28;20259;-83
2021/10/28 19:57:57;;;;;;;621.45;559.20;;;12.20;99.90;;;;;;5090973;28;20206;-82
2021/10/28 20:03:38;;;;;;;549.47;483.92;;;12.10;99.90;;;;;;5100178;28;20681;-83
2021/10/28 20:26:07;;;;;;;613.67;551.22;;;12.10;99.90;;;;;;5047485;28;20217;-82
2021/10/28 20:34:11;;;;;;;658.45;427.00;;;12.10;99.90;;;;;;5046404;28;20213;-82
2021/10/28 20:39:23;;;;;;;659.53;448.48;;;12.10;99.90;;;;;;5052900;28;20236;-81
2021/10/28 20:42:07;;;;;;;662.65;461.70;;;12.10;99.90;;;;;;5046024;28;20721;-80
2021/10/28 20:44:35;;;;;;;664.88;452.63;;;12.10;99.90;;;;;;5053127;28;20235;-79
2021/10/28 20:55:10;;;;;;;670.95;488.30;;;11.90;99.90;;;;;;5046444;28;20197;-80
2021/10/28 21:08:25;;;;;;;672.05;470.42;;;11.80;99.90;;;;;;5045397;28;20246;-80
2021/10/28 21:10:54;;;;;;;665.42;444.17;;;11.70;99.90;;;;;;5045015;28;20308;-79
2021/10/28 21:13:26;;;;;;;668.83;466.67;;;11.70;99.90;;;;;;5048827;28;20241;-79
2021/10/28 21:16:02;;;;;;;669.75;463.70;;;11.60;99.90;;;;;;5055517;28;20222;-78
2021/10/28 21:18:43;;;;;;;665.30;449.23;;;11.60;99.90;;;;;;5042728;28;20206;-79
2021/10/28 21:23:53;;;;;;;666.15;459.05;;;11.60;99.90;;;;;;5055301;28;20209;-79
2021/10/28 21:26:20;;;;;;;660.60;435.08;;;11.60;99.90;;;;;;5052665;28;20221;-79
2021/10/28 21:28:49;;;;;;;665.75;458.75;;;11.70;99.90;;;;;;5056280;28;20230;-81
2021/10/28 21:36:46;;;;;;;668.10;460.50;;;11.70;99.90;;;;;;5054269;28;20238;-80
2021/10/28 21:44:38;;;;;;;668.00;460.95;;;11.80;99.90;;;;;;5057972;28;20283;-80
2021/10/28 21:55:24;;;;;;;674.17;483.95;;;11.60;99.90;;;;;;5052217;28;20289;-81
2021/10/28 21:57:59;;;;;;;669.15;448.00;;;11.50;99.90;;;;;;5057761;28;20226;-80
2021/10/28 22:00:51;;;;;;;669.10;454.77;;;11.60;99.90;;;;;;5059412;28;20215;-81
2021/10/28 22:25:31;;;;;;;667.15;434.88;;;11.40;99.90;;;;;;4986116;28;20215;-80
2021/10/28 22:27:58;;;;;;;666.28;442.27;;;11.30;99.90;;;;;;4986516;28;20239;-80
2021/10/28 22:38:35;;;;;;;657.72;402.17;;;11.40;99.90;;;;;;4986603;28;20223;-81
2021/10/28 22:49:21;;;;;;;657.05;391.45;;;11.30;99.90;;;;;;4966943;28;20291;-80
2021/10/28 22:51:48;;;;;;;668.60;451.40;;;11.20;99.90;;;;;;4986380;28;20204;-81
2021/10/28 22:59:51;;;;;;;670.03;448.65;;;11.20;99.90;;;;;;5057583;28;20247;-82
2021/10/28 23:11:41;;;;;;;662.45;426.73;;;11.20;99.90;;;;;;4918459;29;20213;-80
2021/10/28 23:14:22;;;;;;;666.70;441.60;;;11.20;99.90;;;;;;4950406;28;20229;-81
2021/10/28 23:17:00;;;;;;;652.25;386.85;;;11.10;99.90;;;;;;4955568;28;20226;-83
2021/10/28 23:25:02;;;;;;;654.53;379.20;;;11.10;99.90;;;;;;4949479;29;20213;-81
2021/10/28 23:30:18;;;;;;;663.78;435.38;;;11.10;99.90;;;;;;4958024;28;20215;-82
2021/10/28 23:38:11;;;;;;;664.33;422.92;;;11.10;99.90;;;;;;4956924;29;20207;-80
2021/10/28 23:40:54;;;;;;;660.83;412.23;;;11.20;99.90;;;;;;4950011;29;20208;-80
2021/10/28 23:51:23;;;;;;;649.70;375.40;;;11.10;99.90;;;;;;5032005;28;20271;-80
2021/10/28 23:53:50;;;;;;;656.75;407.27;;;11.10;99.90;;;;;;5033573;28;20229;-81
2021/10/28 23:56:18;;;;;;;652.92;380.10;;;11.20;99.90;;;;;;5030332;28;20356;-80
